createdAt,value
2017-10-02T00:00:53.936Z,83.59
2017-10-02T00:01:53.935Z,83.20
2017-10-02T00:02:53.932Z,83.78
2017-10-02T00:03:53.931Z,83.78
2017-10-02T00:04:53.926Z,83.78
2017-10-02T00:05:53.925Z,83.30
2017-10-02T00:06:53.924Z,83.49
2017-10-02T00:07:53.915Z,83.30
2017-10-02T00:08:53.914Z,83.49
2017-10-02T00:09:53.912Z,83.39
2017-10-02T00:10:53.909Z,83.59
2017-10-02T00:11:53.906Z,83.68
2017-10-02T00:12:53.904Z,83.87
2017-10-02T00:13:53.900Z,83.68
2017-10-02T00:14:53.904Z,83.20
2017-10-02T00:15:53.900Z,83.78
2017-10-02T00:16:53.897Z,83.49
2017-10-02T00:17:53.901Z,83.59
2017-10-02T00:18:53.891Z,83.30
2017-10-02T00:19:53.890Z,83.20
2017-10-02T00:20:53.885Z,83.30
2017-10-02T00:21:53.883Z,83.78
2017-10-02T00:22:53.877Z,83.01
2017-10-02T00:23:53.875Z,83.11
2017-10-02T00:24:53.871Z,83.49
2017-10-02T00:25:53.871Z,83.68
2017-10-02T00:26:53.868Z,83.87
2017-10-02T00:27:53.864Z,83.68
2017-10-02T00:28:53.864Z,83.68
2017-10-02T00:29:53.860Z,83.39
2017-10-02T00:30:53.863Z,83.87
2017-10-02T00:31:53.860Z,83.97
2017-10-02T00:32:53.857Z,83.87
2017-10-02T00:33:53.855Z,84.06
2017-10-02T00:34:53.853Z,83.39
2017-10-02T00:35:53.850Z,83.78
2017-10-02T00:36:53.847Z,83.97
2017-10-02T00:37:53.843Z,83.97
2017-10-02T00:38:53.836Z,83.97
2017-10-02T00:39:53.836Z,83.49
2017-10-02T00:40:53.835Z,83.39
2017-10-02T00:41:53.830Z,83.49
2017-10-02T00:42:53.832Z,83.01
2017-10-02T00:43:53.832Z,83.11
2017-10-02T00:44:53.826Z,83.97
2017-10-02T00:45:53.825Z,83.11
2017-10-02T00:46:53.822Z,83.30
2017-10-02T00:47:53.815Z,83.11
2017-10-02T00:48:53.812Z,83.78
2017-10-02T00:49:53.813Z,83.20
2017-10-02T00:50:53.807Z,82.82
2017-10-02T00:51:53.809Z,83.97
2017-10-02T00:52:53.803Z,83.49
2017-10-02T00:53:53.802Z,83.39
2017-10-02T00:54:53.802Z,83.87
2017-10-02T00:55:53.801Z,83.97
2017-10-02T00:56:53.797Z,83.20
2017-10-02T00:57:53.796Z,83.30
2017-10-02T00:58:53.792Z,83.49
2017-10-02T00:59:53.790Z,83.39
2017-10-02T01:00:53.786Z,83.49
2017-10-02T01:01:53.790Z,83.78
2017-10-02T01:02:53.779Z,83.59
2017-10-02T01:03:53.776Z,83.30
2017-10-02T01:04:53.774Z,83.11
2017-10-02T01:05:53.773Z,83.30
2017-10-02T01:06:53.769Z,83.68
2017-10-02T01:07:53.767Z,83.20
2017-10-02T01:08:53.765Z,83.20
2017-10-02T01:09:53.762Z,83.11
2017-10-02T01:10:53.766Z,83.39
2017-10-02T01:11:53.763Z,83.49
2017-10-02T01:12:53.760Z,83.59
2017-10-02T01:13:53.757Z,83.68
2017-10-02T01:14:53.754Z,83.63
2017-10-02T01:15:53.753Z,83.78
2017-10-02T01:16:53.751Z,83.34
2017-10-02T01:17:53.748Z,83.72
2017-10-02T01:18:53.742Z,83.11
2017-10-02T01:19:53.742Z,83.01
2017-10-02T01:20:53.738Z,83.01
2017-10-02T01:21:53.734Z,83.49
2017-10-02T01:22:53.734Z,83.68
2017-10-02T01:23:53.730Z,83.59
2017-10-02T01:24:53.728Z,83.63
2017-10-02T01:25:53.726Z,83.59
2017-10-02T01:26:53.728Z,83.63
2017-10-02T01:27:53.725Z,83.59
2017-10-02T01:28:53.723Z,83.59
2017-10-02T01:29:53.722Z,83.68
2017-10-02T01:30:53.718Z,83.78
2017-10-02T01:31:53.717Z,83.68
2017-10-02T01:32:53.714Z,83.78
2017-10-02T01:33:53.711Z,83.78
2017-10-02T01:34:53.705Z,83.59
2017-10-02T01:35:53.706Z,83.25
2017-10-02T01:36:53.699Z,83.44
2017-10-02T01:37:53.699Z,83.25
2017-10-02T01:38:53.697Z,83.30
2017-10-02T01:39:53.695Z,83.49
2017-10-02T01:40:53.692Z,83.53
2017-10-02T01:41:53.690Z,83.01
2017-10-02T01:42:53.692Z,83.68
2017-10-02T01:43:53.689Z,84.35
2017-10-02T01:44:53.686Z,84.35
2017-10-02T01:45:53.684Z,84.35
2017-10-02T01:46:53.679Z,84.35
2017-10-02T01:47:53.677Z,84.26
2017-10-02T01:48:53.675Z,84.74
2017-10-02T01:49:53.672Z,85.41
2017-10-02T01:50:53.675Z,85.12
2017-10-02T01:51:53.672Z,85.60
2017-10-02T01:52:53.669Z,85.79
2017-10-02T01:53:53.667Z,86.08
2017-10-02T01:54:53.664Z,86.17
2017-10-02T01:55:53.663Z,85.88
2017-10-02T01:56:53.659Z,86.08
2017-10-02T01:57:53.657Z,86.84
2017-10-02T01:58:53.651Z,87.03
2017-10-02T01:59:53.649Z,87.41
2017-10-02T02:00:53.646Z,87.32
2017-10-02T02:01:53.642Z,88.09
2017-10-02T02:02:53.641Z,87.85
2017-10-02T02:03:53.639Z,87.99
2017-10-02T02:04:53.636Z,89.09
2017-10-02T02:05:53.633Z,88.43
2017-10-02T02:06:53.635Z,89.38
2017-10-02T02:07:53.654Z,89.95
2017-10-02T02:08:53.629Z,90.24
2017-10-02T02:09:53.627Z,91.30
2017-10-02T02:10:53.624Z,91.49
2017-10-02T02:11:53.622Z,91.77
2017-10-02T02:12:53.619Z,91.87
2017-10-02T02:13:53.618Z,92.25
2017-10-02T02:14:53.610Z,92.06
2017-10-02T02:15:53.607Z,92.44
2017-10-02T02:16:53.605Z,92.16
2017-10-02T02:17:53.603Z,92.30
2017-10-02T02:18:53.600Z,92.49
2017-10-02T02:19:53.596Z,92.69
2017-10-02T02:20:53.592Z,92.40
2017-10-02T02:21:53.590Z,92.78
2017-10-02T02:22:53.592Z,92.30
2017-10-02T02:23:53.590Z,92.06
2017-10-02T02:24:53.586Z,92.02
2017-10-02T02:25:53.584Z,92.16
2017-10-02T02:26:53.581Z,92.44
2017-10-02T02:27:53.578Z,92.63
2017-10-02T02:28:53.575Z,92.30
2017-10-02T02:29:53.571Z,91.83
2017-10-02T02:30:53.567Z,92.11
2017-10-02T02:31:53.562Z,92.02
2017-10-02T02:32:53.559Z,92.21
2017-10-02T02:33:53.557Z,92.06
2017-10-02T02:34:53.554Z,91.49
2017-10-02T02:35:53.553Z,91.68
2017-10-02T02:36:53.547Z,91.87
2017-10-02T02:37:53.549Z,91.77
2017-10-02T02:38:53.545Z,91.68
2017-10-02T02:39:53.544Z,91.49
2017-10-02T02:40:53.540Z,91.49
2017-10-02T02:41:53.542Z,91.39
2017-10-02T02:42:53.534Z,91.49
2017-10-02T02:43:53.532Z,91.49
2017-10-02T02:44:53.527Z,91.97
2017-10-02T02:45:53.525Z,92.25
2017-10-02T02:46:53.519Z,92.06
2017-10-02T02:47:53.517Z,91.20
2017-10-02T02:48:53.513Z,91.83
2017-10-02T02:49:53.510Z,91.97
2017-10-02T02:50:53.512Z,92.25
2017-10-02T02:51:53.510Z,91.77
2017-10-02T02:52:53.505Z,91.97
2017-10-02T02:53:53.504Z,92.25
2017-10-02T02:54:53.497Z,92.25
2017-10-02T02:55:53.494Z,92.16
2017-10-02T02:56:53.490Z,92.16
2017-10-02T02:57:53.488Z,92.06
2017-10-02T02:58:53.484Z,92.25
2017-10-02T02:59:53.490Z,92.44
2017-10-02T03:00:53.480Z,92.63
2017-10-02T03:01:53.476Z,92.44
2017-10-02T03:02:53.478Z,92.73
2017-10-02T03:03:53.475Z,92.44
2017-10-02T03:04:53.474Z,92.73
2017-10-02T03:05:53.468Z,92.54
2017-10-02T03:06:53.467Z,92.54
2017-10-02T03:07:53.464Z,92.44
2017-10-02T03:08:53.462Z,93.12
2017-10-02T03:09:53.457Z,93.30
2017-10-02T03:10:53.451Z,94.07
2017-10-02T03:11:53.449Z,93.88
2017-10-02T03:12:53.446Z,94.02
2017-10-02T03:13:53.443Z,94.60
2017-10-02T03:14:53.440Z,95.17
2017-10-02T03:15:53.438Z,95.27
2017-10-02T03:16:53.435Z,95.65
2017-10-02T03:17:53.431Z,96.32
2017-10-02T03:18:53.434Z,97.18
2017-10-02T03:19:53.432Z,96.61
2017-10-02T03:20:53.433Z,96.89
2017-10-02T03:21:53.424Z,97.08
2017-10-02T03:22:53.421Z,97.56
2017-10-02T03:23:53.419Z,98.52
2017-10-02T03:24:53.416Z,99.00
2017-10-02T03:25:53.413Z,99.99
2017-10-02T03:26:53.407Z,99.96
2017-10-02T03:27:53.401Z,99.86
2017-10-02T03:28:53.399Z,99.99
2017-10-02T03:29:53.395Z,99.99
2017-10-02T03:30:53.394Z,99.99
2017-10-02T03:31:53.390Z,99.99
2017-10-02T03:32:53.385Z,99.99
2017-10-02T03:33:53.383Z,99.99
2017-10-02T03:34:53.384Z,99.99
2017-10-02T03:35:53.381Z,99.99
2017-10-02T03:36:53.377Z,99.99
2017-10-02T03:37:53.376Z,99.99
2017-10-02T03:38:53.371Z,99.99
2017-10-02T03:39:53.367Z,99.99
2017-10-02T03:40:53.364Z,99.99
2017-10-02T03:41:53.361Z,99.99
2017-10-02T03:42:53.353Z,99.99
2017-10-02T03:43:53.350Z,99.99
2017-10-02T03:44:53.346Z,99.99
2017-10-02T03:45:53.342Z,99.99
2017-10-02T03:46:53.339Z,99.99
2017-10-02T03:47:53.337Z,99.99
2017-10-02T03:48:53.333Z,99.99
2017-10-02T03:49:53.329Z,99.99
2017-10-02T03:50:53.335Z,99.99
2017-10-02T03:51:53.327Z,99.99
2017-10-02T03:52:53.323Z,99.99
2017-10-02T03:53:53.320Z,99.99
2017-10-02T03:54:53.315Z,99.99
2017-10-02T03:55:53.314Z,99.99
2017-10-02T03:56:53.310Z,99.99
2017-10-02T03:57:53.305Z,99.99
2017-10-02T03:58:53.300Z,99.99
2017-10-02T03:59:53.295Z,99.99
2017-10-02T04:00:53.292Z,99.99
2017-10-02T04:01:53.290Z,99.99
2017-10-02T04:02:53.285Z,99.99
2017-10-02T04:03:53.283Z,99.99
2017-10-02T04:04:53.279Z,99.99
2017-10-02T04:05:53.277Z,99.99
2017-10-02T04:06:53.277Z,99.99
2017-10-02T04:07:53.273Z,99.99
2017-10-02T04:08:53.271Z,99.99
2017-10-02T04:09:53.267Z,99.99
2017-10-02T04:10:53.262Z,99.99
2017-10-02T04:11:53.260Z,99.99
2017-10-02T04:12:53.255Z,99.99
2017-10-02T04:13:53.253Z,99.99
2017-10-02T04:14:53.245Z,99.99
2017-10-02T04:15:53.244Z,99.99
2017-10-02T04:16:53.238Z,99.99
2017-10-02T04:17:53.236Z,99.99
2017-10-02T04:18:53.232Z,99.99
2017-10-02T04:19:53.231Z,99.99
2017-10-02T04:20:53.227Z,99.99
2017-10-02T04:21:53.223Z,99.99
2017-10-02T04:22:53.224Z,99.99
2017-10-02T04:23:53.221Z,99.99
2017-10-02T04:24:53.217Z,99.99
2017-10-02T04:25:53.215Z,99.99
2017-10-02T04:26:53.212Z,99.99
2017-10-02T04:27:53.207Z,99.99
2017-10-02T04:28:53.204Z,99.99
2017-10-02T04:29:53.200Z,99.99
2017-10-02T04:30:53.194Z,99.99
2017-10-02T04:31:53.191Z,99.99
2017-10-02T04:32:53.187Z,99.99
2017-10-02T04:33:53.184Z,99.99
2017-10-02T04:34:53.182Z,99.99
2017-10-02T04:35:53.178Z,99.99
2017-10-02T04:36:53.173Z,99.99
2017-10-02T04:37:53.170Z,99.99
2017-10-02T04:38:53.172Z,99.99
2017-10-02T04:39:53.169Z,99.99
2017-10-02T04:40:53.164Z,99.99
2017-10-02T04:41:53.164Z,99.99
2017-10-02T04:42:53.159Z,99.99
2017-10-02T04:43:53.157Z,99.99
2017-10-02T04:44:53.153Z,99.99
2017-10-02T04:45:53.151Z,99.99
2017-10-02T04:46:53.142Z,99.99
2017-10-02T04:47:53.139Z,99.99
2017-10-02T04:48:53.136Z,99.99
2017-10-02T04:49:53.133Z,99.99
2017-10-02T04:50:53.129Z,99.99
2017-10-02T04:51:53.129Z,99.99
2017-10-02T04:52:53.123Z,99.99
2017-10-02T04:53:53.121Z,99.99
2017-10-02T04:54:53.121Z,99.99
2017-10-02T04:55:53.119Z,99.99
2017-10-02T04:56:53.116Z,99.99
2017-10-02T04:57:53.117Z,99.99
2017-10-02T04:58:53.105Z,99.99
2017-10-02T04:59:53.103Z,99.99
2017-10-02T05:00:53.098Z,99.99
2017-10-02T05:01:53.096Z,99.99
2017-10-02T05:02:53.098Z,99.99
2017-10-02T05:03:53.095Z,99.99
2017-10-02T05:04:53.091Z,99.99
2017-10-02T05:05:53.088Z,99.99
2017-10-02T05:06:53.086Z,99.99
2017-10-02T05:07:53.082Z,99.99
2017-10-02T05:08:53.080Z,99.99
2017-10-02T05:09:53.076Z,99.99
2017-10-02T05:10:53.069Z,99.99
2017-10-02T05:11:53.066Z,99.99
2017-10-02T05:12:53.067Z,99.99
2017-10-02T05:13:53.061Z,99.99
2017-10-02T05:14:53.058Z,99.99
2017-10-02T05:15:53.056Z,99.99
2017-10-02T05:16:53.050Z,99.99
2017-10-02T05:17:53.048Z,99.99
2017-10-02T05:18:53.049Z,99.99
2017-10-02T05:19:53.046Z,99.99
2017-10-02T05:20:53.043Z,99.99
2017-10-02T05:21:53.041Z,99.99
2017-10-02T05:22:53.040Z,99.99
2017-10-02T05:23:53.036Z,99.99
2017-10-02T05:24:53.032Z,99.99
2017-10-02T05:25:53.030Z,99.99
2017-10-02T05:26:53.025Z,99.99
2017-10-02T05:27:53.021Z,99.99
2017-10-02T05:28:53.017Z,99.99
2017-10-02T05:29:53.015Z,99.99
2017-10-02T05:30:53.012Z,99.99
2017-10-02T05:31:53.010Z,99.99
2017-10-02T05:32:53.012Z,99.99
2017-10-02T05:33:53.004Z,99.99
2017-10-02T05:34:53.007Z,99.99
2017-10-02T05:35:53.002Z,99.99
2017-10-02T05:36:52.998Z,99.99
2017-10-02T05:37:52.997Z,99.99
2017-10-02T05:38:52.994Z,99.99
2017-10-02T05:39:52.991Z,99.99
2017-10-02T05:40:52.990Z,99.99
2017-10-02T05:41:52.986Z,99.99
2017-10-02T05:42:52.977Z,99.99
2017-10-02T05:43:52.977Z,99.99
2017-10-02T05:44:52.975Z,99.99
2017-10-02T05:45:52.971Z,99.99
2017-10-02T05:46:52.968Z,99.99
2017-10-02T05:47:52.973Z,99.99
2017-10-02T05:48:52.962Z,99.99
2017-10-02T05:49:52.961Z,99.99
2017-10-02T05:50:52.962Z,99.99
2017-10-02T05:51:52.960Z,99.99
2017-10-02T05:52:52.956Z,99.99
2017-10-02T05:53:52.957Z,99.99
2017-10-02T05:54:52.950Z,99.99
2017-10-02T05:55:52.949Z,99.99
2017-10-02T05:56:52.953Z,99.99
2017-10-02T05:57:52.943Z,99.99
2017-10-02T05:58:52.942Z,99.99
2017-10-02T05:59:52.934Z,99.99
2017-10-02T06:00:52.933Z,99.99
2017-10-02T06:01:52.929Z,99.99
2017-10-02T06:02:52.933Z,99.99
2017-10-02T06:03:52.929Z,99.99
2017-10-02T06:04:52.925Z,99.99
2017-10-02T06:05:52.922Z,99.99
2017-10-02T06:06:52.917Z,99.99
2017-10-02T06:07:52.915Z,99.99
2017-10-02T06:08:52.910Z,99.99
2017-10-02T06:09:52.911Z,99.99
2017-10-02T06:10:52.907Z,99.99
2017-10-02T06:11:52.903Z,99.99
2017-10-02T06:12:52.906Z,99.99
2017-10-02T06:13:52.898Z,99.99
2017-10-02T06:14:52.900Z,99.99
2017-10-02T06:15:52.899Z,99.99
2017-10-02T06:16:52.895Z,99.99
2017-10-02T06:17:52.897Z,99.99
2017-10-02T06:18:52.890Z,99.99
2017-10-02T06:19:52.891Z,99.99
2017-10-02T06:20:52.886Z,99.99
2017-10-02T06:21:52.883Z,99.99
2017-10-02T06:22:52.877Z,99.99
2017-10-02T06:23:52.875Z,99.99
2017-10-02T06:24:52.874Z,99.99
2017-10-02T06:25:52.871Z,99.99
2017-10-02T06:26:52.867Z,99.99
2017-10-02T06:27:52.865Z,99.99
2017-10-02T06:28:52.863Z,99.99
2017-10-02T06:29:52.860Z,99.99
2017-10-02T06:30:52.862Z,99.99
2017-10-02T06:31:52.860Z,99.99
2017-10-02T06:32:52.858Z,99.99
2017-10-02T06:33:52.856Z,99.99
2017-10-02T06:34:52.853Z,99.99
2017-10-02T06:35:52.849Z,99.99
2017-10-02T06:36:52.847Z,99.99
2017-10-02T06:37:52.847Z,99.99
2017-10-02T06:38:52.839Z,99.99
2017-10-02T06:39:52.835Z,99.99
2017-10-02T06:40:52.834Z,99.99
2017-10-02T06:41:52.832Z,99.99
2017-10-02T06:42:52.829Z,99.99
2017-10-02T06:43:52.827Z,99.99
2017-10-02T06:44:52.824Z,99.99
2017-10-02T06:45:52.822Z,99.99
2017-10-02T06:46:52.823Z,99.99
2017-10-02T06:47:52.821Z,99.99
2017-10-02T06:48:52.819Z,99.99
2017-10-02T06:49:52.815Z,99.99
2017-10-02T06:50:52.820Z,99.99
2017-10-02T06:51:52.812Z,99.99
2017-10-02T06:52:52.809Z,99.99
2017-10-02T06:53:52.807Z,99.99
2017-10-02T06:54:52.801Z,99.99
2017-10-02T06:55:52.800Z,99.99
2017-10-02T06:56:52.794Z,99.99
2017-10-02T06:57:52.795Z,99.99
2017-10-02T06:58:52.795Z,99.99
2017-10-02T06:59:52.790Z,99.99
2017-10-02T07:00:52.787Z,99.99
2017-10-02T07:01:52.785Z,99.99
2017-10-02T07:02:52.786Z,99.99
2017-10-02T07:03:52.786Z,99.99
2017-10-02T07:04:52.782Z,99.99
2017-10-02T07:05:52.779Z,99.99
2017-10-02T07:06:52.773Z,99.99
2017-10-02T07:07:52.775Z,99.99
2017-10-02T07:08:52.773Z,99.99
2017-10-02T07:09:52.765Z,99.99
2017-10-02T07:10:52.768Z,99.99
2017-10-02T07:11:52.767Z,99.99
2017-10-02T07:12:52.762Z,99.99
2017-10-02T07:13:52.761Z,99.99
2017-10-02T07:14:52.760Z,99.99
2017-10-02T07:15:52.757Z,99.99
2017-10-02T07:16:52.755Z,99.99
2017-10-02T07:17:52.753Z,99.99
2017-10-02T07:18:52.750Z,99.99
2017-10-02T07:19:52.743Z,99.99
2017-10-02T07:20:52.742Z,99.99
2017-10-02T07:21:52.741Z,99.99
2017-10-02T07:22:52.739Z,99.99
2017-10-02T07:23:52.737Z,99.99
2017-10-02T07:24:52.733Z,99.99
2017-10-02T07:25:52.734Z,99.99
2017-10-02T07:26:52.735Z,99.99
2017-10-02T07:27:52.732Z,99.99
2017-10-02T07:28:52.730Z,99.99
2017-10-02T07:29:52.729Z,99.99
2017-10-02T07:30:52.726Z,99.99
2017-10-02T07:31:52.725Z,99.99
2017-10-02T07:32:52.726Z,99.99
2017-10-02T07:33:52.722Z,99.99
2017-10-02T07:34:52.715Z,99.99
2017-10-02T07:35:52.730Z,99.99
2017-10-02T07:36:52.712Z,99.99
2017-10-02T07:37:52.709Z,99.99
2017-10-02T07:38:52.708Z,99.99
2017-10-02T07:39:52.707Z,99.99
2017-10-02T07:40:52.704Z,99.99
2017-10-02T07:41:52.702Z,99.99
2017-10-02T07:42:52.706Z,99.99
2017-10-02T07:43:52.704Z,99.99
2017-10-02T07:44:52.703Z,99.99
2017-10-02T07:45:52.701Z,99.99
2017-10-02T07:46:52.702Z,99.99
2017-10-02T07:47:52.699Z,99.99
2017-10-02T07:48:52.696Z,99.99
2017-10-02T07:49:52.696Z,99.99
2017-10-02T07:50:52.690Z,99.99
2017-10-02T07:51:52.688Z,99.99
2017-10-02T07:52:52.686Z,99.99
2017-10-02T07:53:52.684Z,99.99
2017-10-02T07:54:52.684Z,99.99
2017-10-02T07:55:52.681Z,99.99
2017-10-02T07:56:52.681Z,99.99
2017-10-02T07:57:52.679Z,99.99
2017-10-02T07:58:52.681Z,99.99
2017-10-02T07:59:52.681Z,99.99
2017-10-02T08:00:52.697Z,99.99
2017-10-02T08:01:52.678Z,99.99
2017-10-02T08:02:52.679Z,99.99
2017-10-02T08:03:52.676Z,99.99
2017-10-02T08:04:52.673Z,99.99
2017-10-02T08:05:52.672Z,99.99
2017-10-02T08:06:52.668Z,99.99
2017-10-02T08:07:52.666Z,99.99
2017-10-02T08:08:52.664Z,99.99
2017-10-02T08:09:52.664Z,99.99
2017-10-02T08:10:52.665Z,99.99
2017-10-02T08:11:52.665Z,99.99
2017-10-02T08:12:52.662Z,99.99
2017-10-02T08:13:52.662Z,99.99
2017-10-02T08:14:52.657Z,99.99
2017-10-02T08:15:52.655Z,99.99
2017-10-02T08:16:52.653Z,99.99
2017-10-02T08:17:52.653Z,99.99
2017-10-02T08:18:52.657Z,99.99
2017-10-02T08:19:52.648Z,99.99
2017-10-02T08:20:52.648Z,99.99
2017-10-02T08:21:52.647Z,99.99
2017-10-02T08:22:52.651Z,99.99
2017-10-02T08:23:52.647Z,99.99
2017-10-02T08:24:52.646Z,99.99
2017-10-02T08:25:52.646Z,99.99
2017-10-02T08:26:52.644Z,99.99
2017-10-02T08:27:52.643Z,99.99
2017-10-02T08:28:52.640Z,99.99
2017-10-02T08:29:52.638Z,99.99
2017-10-02T08:30:52.634Z,99.99
2017-10-02T08:31:52.634Z,99.99
2017-10-02T08:32:52.633Z,99.99
2017-10-02T08:33:52.629Z,99.99
2017-10-02T08:34:52.630Z,99.99
2017-10-02T08:35:52.629Z,99.99
2017-10-02T08:36:52.625Z,99.99
2017-10-02T08:37:52.627Z,99.99
2017-10-02T08:38:52.630Z,99.99
2017-10-02T08:39:52.627Z,99.99
2017-10-02T08:40:52.627Z,99.99
2017-10-02T08:41:52.625Z,99.99
2017-10-02T08:42:52.632Z,99.99
2017-10-02T08:43:52.628Z,99.99
2017-10-02T08:44:52.625Z,99.99
2017-10-02T08:45:52.620Z,99.99
2017-10-02T08:46:52.629Z,99.99
2017-10-02T08:47:52.616Z,99.99
2017-10-02T08:48:52.617Z,99.99
2017-10-02T08:49:52.610Z,99.99
2017-10-02T08:50:52.611Z,99.99
2017-10-02T08:51:52.612Z,99.99
2017-10-02T08:52:52.607Z,99.99
2017-10-02T08:53:52.609Z,99.99
2017-10-02T08:54:52.610Z,99.99
2017-10-02T08:55:52.610Z,99.99
2017-10-02T08:56:52.609Z,99.99
2017-10-02T08:57:52.625Z,99.99
2017-10-02T08:58:52.607Z,99.99
2017-10-02T08:59:52.605Z,99.99
2017-10-02T09:00:52.605Z,99.99
2017-10-02T09:01:52.604Z,99.99
2017-10-02T09:02:52.601Z,99.99
2017-10-02T09:03:52.599Z,99.99
2017-10-02T09:04:52.598Z,99.99
2017-10-02T09:05:52.598Z,99.99
2017-10-02T09:06:52.597Z,99.99
2017-10-02T09:07:52.595Z,99.99
2017-10-02T09:08:52.593Z,99.99
2017-10-02T09:09:52.593Z,99.99
2017-10-02T09:10:52.602Z,99.99
2017-10-02T09:11:52.597Z,99.99
2017-10-02T09:12:52.594Z,99.99
2017-10-02T09:13:52.595Z,99.99
2017-10-02T09:14:52.590Z,99.99
2017-10-02T09:15:52.590Z,99.99
2017-10-02T09:16:52.587Z,99.99
2017-10-02T09:17:52.587Z,99.99
2017-10-02T09:18:52.593Z,99.99
2017-10-02T09:19:52.591Z,99.99
2017-10-02T09:20:52.589Z,99.99
2017-10-02T09:21:52.588Z,99.99
2017-10-02T09:22:52.589Z,99.99
2017-10-02T09:23:52.588Z,99.99
2017-10-02T09:24:52.588Z,99.99
2017-10-02T09:25:52.588Z,99.99
2017-10-02T09:26:52.583Z,99.99
2017-10-02T09:27:52.583Z,99.99
2017-10-02T09:28:52.581Z,99.99
2017-10-02T09:29:52.581Z,99.99
2017-10-02T09:30:52.580Z,99.99
2017-10-02T09:31:52.582Z,99.99
2017-10-02T09:32:52.586Z,99.99
2017-10-02T09:33:52.579Z,99.99
2017-10-02T09:34:52.584Z,99.99
2017-10-02T09:35:52.583Z,99.99
2017-10-02T09:36:52.580Z,99.99
2017-10-02T09:37:52.582Z,99.99
2017-10-02T09:38:52.582Z,99.99
2017-10-02T09:39:52.581Z,99.99
2017-10-02T09:40:52.579Z,99.99
2017-10-02T09:41:52.580Z,99.99
2017-10-02T09:42:52.574Z,99.99
2017-10-02T09:43:52.580Z,99.99
2017-10-02T09:44:52.576Z,98.05
2017-10-02T09:45:52.575Z,97.76
2017-10-02T09:46:52.577Z,95.70
2017-10-02T09:47:52.578Z,96.37
2017-10-02T09:48:52.578Z,95.55
2017-10-02T09:49:52.578Z,93.66
2017-10-02T09:50:52.584Z,92.61
2017-10-02T09:51:52.585Z,92.27
2017-10-02T09:52:52.590Z,90.82
2017-10-02T09:53:52.588Z,89.91
2017-10-02T09:54:52.590Z,90.30
2017-10-02T09:55:52.593Z,90.92
2017-10-02T09:56:52.593Z,91.12
2017-10-02T09:57:52.597Z,91.41
2017-10-02T09:58:52.595Z,91.75
2017-10-02T09:59:52.598Z,91.27
2017-10-02T10:00:52.601Z,91.17
2017-10-02T10:01:52.603Z,90.78
2017-10-02T10:02:52.607Z,91.36
2017-10-02T10:03:52.611Z,92.08
2017-10-02T10:04:52.612Z,91.94
2017-10-02T10:05:52.615Z,93.10
2017-10-02T10:06:52.622Z,93.10
2017-10-02T10:07:52.625Z,93.77
2017-10-02T10:08:52.627Z,94.54
2017-10-02T10:09:52.630Z,93.43
2017-10-02T10:10:52.633Z,93.72
2017-10-02T10:11:52.635Z,94.10
2017-10-02T10:12:52.638Z,92.47
2017-10-02T10:13:52.638Z,92.38
2017-10-02T10:14:52.639Z,92.28
2017-10-02T10:15:52.642Z,92.18
2017-10-02T10:16:52.642Z,92.47
2017-10-02T10:17:52.645Z,92.18
2017-10-02T10:18:52.654Z,91.65
2017-10-02T10:19:52.656Z,91.31
2017-10-02T10:20:52.657Z,91.03
2017-10-02T10:21:52.661Z,90.83
2017-10-02T10:22:52.661Z,91.41
2017-10-02T10:23:52.663Z,91.46
2017-10-02T10:24:52.665Z,91.31
2017-10-02T10:25:52.666Z,91.17
2017-10-02T10:26:52.670Z,92.28
2017-10-02T10:27:52.672Z,92.08
2017-10-02T10:28:52.674Z,92.04
2017-10-02T10:29:52.679Z,91.80
2017-10-02T10:30:52.684Z,91.89
2017-10-02T10:31:52.693Z,91.89
2017-10-02T10:32:52.686Z,91.03
2017-10-02T10:33:52.689Z,89.83
2017-10-02T10:34:52.693Z,89.78
2017-10-02T10:35:52.695Z,90.21
2017-10-02T10:36:52.697Z,89.64
2017-10-02T10:37:52.699Z,89.83
2017-10-02T10:38:52.695Z,90.31
2017-10-02T10:39:52.700Z,90.21
2017-10-02T10:40:52.699Z,90.50
2017-10-02T10:41:52.702Z,90.83
2017-10-02T10:42:52.704Z,90.59
2017-10-02T10:43:52.707Z,90.73
2017-10-02T10:44:52.709Z,90.35
2017-10-02T10:45:52.710Z,89.63
2017-10-02T10:46:52.718Z,89.24
2017-10-02T10:47:52.717Z,88.57
2017-10-02T10:48:52.718Z,87.51
2017-10-02T10:49:52.722Z,87.32
2017-10-02T10:50:52.723Z,87.36
2017-10-02T10:51:52.727Z,86.49
2017-10-02T10:52:52.728Z,86.49
2017-10-02T10:53:52.735Z,85.71
2017-10-02T10:54:52.729Z,83.88
2017-10-02T10:55:52.735Z,83.69
2017-10-02T10:56:52.732Z,82.97
2017-10-02T10:57:52.735Z,83.45
2017-10-02T10:58:52.737Z,83.55
2017-10-02T10:59:52.739Z,83.84
2017-10-02T11:00:52.742Z,83.64
2017-10-02T11:01:52.744Z,83.64
2017-10-02T11:02:52.758Z,82.64
2017-10-02T11:03:52.757Z,82.93
2017-10-02T11:04:52.757Z,83.31
2017-10-02T11:05:52.761Z,83.03
2017-10-02T11:06:52.768Z,82.39
2017-10-02T11:07:52.767Z,82.29
2017-10-02T11:08:52.769Z,81.33
2017-10-02T11:09:52.777Z,82.39
2017-10-02T11:10:52.770Z,82.83
2017-10-02T11:11:52.781Z,82.93
2017-10-02T11:12:52.776Z,83.12
2017-10-02T11:13:52.777Z,83.08
2017-10-02T11:14:52.781Z,83.08
2017-10-02T11:15:52.785Z,84.33
2017-10-02T11:16:52.785Z,83.95
2017-10-02T11:17:52.789Z,84.48
2017-10-02T11:18:52.797Z,84.05
2017-10-02T11:19:52.798Z,83.56
2017-10-02T11:20:52.800Z,84.33
2017-10-02T11:21:52.804Z,83.74
2017-10-02T11:22:52.804Z,83.07
2017-10-02T11:23:52.822Z,82.53
2017-10-02T11:24:52.805Z,82.34
2017-10-02T11:25:52.810Z,81.80
2017-10-02T11:26:52.816Z,80.64
2017-10-02T11:27:52.818Z,80.45
2017-10-02T11:28:52.820Z,79.93
2017-10-02T11:29:52.823Z,79.44
2017-10-02T11:30:52.830Z,79.06
2017-10-02T11:31:52.829Z,78.96
2017-10-02T11:32:52.833Z,79.50
2017-10-02T11:33:52.834Z,79.08
2017-10-02T11:34:52.835Z,79.56
2017-10-02T11:35:52.837Z,79.94
2017-10-02T11:36:52.840Z,79.90
2017-10-02T11:37:52.841Z,80.10
2017-10-02T11:38:52.845Z,80.19
2017-10-02T11:39:52.848Z,80.33
2017-10-02T11:40:52.848Z,80.43
2017-10-02T11:41:52.852Z,79.56
2017-10-02T11:42:52.859Z,79.89
2017-10-02T11:43:52.862Z,79.89
2017-10-02T11:44:52.863Z,79.35
2017-10-02T11:45:52.867Z,79.06
2017-10-02T11:46:52.869Z,78.00
2017-10-02T11:47:52.872Z,76.93
2017-10-02T11:48:52.874Z,77.17
2017-10-02T11:49:52.874Z,76.20
2017-10-02T11:50:52.874Z,75.82
2017-10-02T11:51:52.876Z,75.72
2017-10-02T11:52:52.879Z,75.43
2017-10-02T11:53:52.880Z,75.09
2017-10-02T11:54:52.884Z,75.67
2017-10-02T11:55:52.887Z,75.47
2017-10-02T11:56:52.889Z,74.79
2017-10-02T11:57:52.890Z,74.31
2017-10-02T11:58:52.899Z,74.60
2017-10-02T11:59:52.902Z,73.93
2017-10-02T12:00:52.903Z,73.44
2017-10-02T12:01:52.905Z,73.83
2017-10-02T12:02:52.909Z,72.96
2017-10-02T12:03:52.912Z,73.15
2017-10-02T12:04:52.912Z,72.58
2017-10-02T12:05:52.919Z,72.58
2017-10-02T12:06:52.916Z,72.86
2017-10-02T12:07:52.917Z,72.25
2017-10-02T12:08:52.918Z,71.77
2017-10-02T12:09:52.922Z,71.48
2017-10-02T12:10:52.924Z,70.90
2017-10-02T12:11:52.927Z,70.13
2017-10-02T12:12:52.930Z,70.22
2017-10-02T12:13:52.931Z,70.09
2017-10-02T12:14:52.937Z,70.48
2017-10-02T12:15:52.940Z,70.57
2017-10-02T12:16:52.942Z,70.76
2017-10-02T12:17:52.945Z,71.41
2017-10-02T12:18:52.946Z,71.98
2017-10-02T12:19:52.962Z,71.83
2017-10-02T12:20:52.953Z,71.54
2017-10-02T12:21:52.967Z,72.02
2017-10-02T12:22:52.952Z,71.54
2017-10-02T12:23:52.957Z,71.64
2017-10-02T12:24:52.955Z,71.41
2017-10-02T12:25:52.960Z,71.34
2017-10-02T12:26:52.966Z,71.70
2017-10-02T12:27:52.965Z,71.92
2017-10-02T12:28:52.966Z,72.75
2017-10-02T12:29:52.967Z,72.69
2017-10-02T12:30:52.975Z,72.99
2017-10-02T12:31:52.979Z,72.50
2017-10-02T12:32:52.982Z,72.50
2017-10-02T12:33:52.980Z,72.99
2017-10-02T12:34:52.985Z,72.79
2017-10-02T12:35:52.988Z,73.18
2017-10-02T12:36:52.988Z,73.21
2017-10-02T12:37:52.992Z,71.73
2017-10-02T12:38:52.990Z,70.67
2017-10-02T12:39:52.991Z,71.25
2017-10-02T12:40:52.994Z,71.73
2017-10-02T12:41:52.999Z,71.77
2017-10-02T12:42:53.003Z,71.58
2017-10-02T12:43:53.001Z,71.67
2017-10-02T12:44:53.003Z,71.38
2017-10-02T12:45:53.004Z,71.58
2017-10-02T12:46:53.012Z,71.00
2017-10-02T12:47:53.015Z,71.48
2017-10-02T12:48:53.014Z,71.25
2017-10-02T12:49:53.018Z,70.19
2017-10-02T12:50:53.021Z,70.19
2017-10-02T12:51:53.022Z,70.86
2017-10-02T12:52:53.025Z,70.00